sensor_id;sensor_type;location;lat;lon;timestamp;pressure;altitude;pressure_sealevel;temperature;humidity
79799;BME280;69283;48.024;11.090;2023-10-09T00:00:32;96085.72;;;13.67;69.54
79799;BME280;69283;48.024;11.090;2023-10-09T00:03:16;96075.34;;;13.61;70.09
79799;BME280;69283;48.024;11.090;2023-10-09T00:05:42;96079.91;;;13.57;70.17
79799;BME280;69283;48.024;11.090;2023-10-09T00:08:15;96073.56;;;13.65;69.61
79799;BME280;69283;48.024;11.090;2023-10-09T00:10:56;96068.53;;;13.55;70.52
79799;BME280;69283;48.024;11.090;2023-10-09T00:13:26;96069.25;;;13.64;69.51
79799;BME280;69283;48.024;11.090;2023-10-09T00:16:03;96071.28;;;13.55;69.59
79799;BME280;69283;48.024;11.090;2023-10-09T00:18:34;96068.53;;;13.55;69.78
79799;BME280;69283;48.024;11.090;2023-10-09T00:20:59;96065.06;;;13.66;69.88
79799;BME280;69283;48.024;11.090;2023-10-09T00:23:38;96057.97;;;13.41;70.77
79799;BME280;69283;48.024;11.090;2023-10-09T00:26:04;96062.41;;;13.46;70.37
79799;BME280;69283;48.024;11.090;2023-10-09T00:28:41;96060.25;;;13.51;70.26
79799;BME280;69283;48.024;11.090;2023-10-09T00:31:09;96053.22;;;13.50;70.28
79799;BME280;69283;48.024;11.090;2023-10-09T00:33:40;96051.75;;;13.53;69.96
79799;BME280;69283;48.024;11.090;2023-10-09T00:36:06;96049.06;;;13.65;69.81
79799;BME280;69283;48.024;11.090;2023-10-09T00:38:37;96052.88;;;13.52;70.67
79799;BME280;69283;48.024;11.090;2023-10-09T00:41:16;96041.78;;;13.57;70.21
79799;BME280;69283;48.024;11.090;2023-10-09T00:43:46;96040.88;;;13.53;70.33
79799;BME280;69283;48.024;11.090;2023-10-09T00:46:14;96035.88;;;13.55;70.03
79799;BME280;69283;48.024;11.090;2023-10-09T00:48:48;96025.69;;;13.64;69.90
79799;BME280;69283;48.024;11.090;2023-10-09T00:51:16;96025.44;;;13.45;71.18
79799;BME280;69283;48.024;11.090;2023-10-09T00:53:49;96024.63;;;13.56;70.37
79799;BME280;69283;48.024;11.090;2023-10-09T00:56:17;96013.63;;;13.53;70.92
79799;BME280;69283;48.024;11.090;2023-10-09T00:58:53;96008.19;;;13.53;70.75
79799;BME280;69283;48.024;11.090;2023-10-09T01:01:29;96004.22;;;13.50;71.05
79799;BME280;69283;48.024;11.090;2023-10-09T01:04:01;96006.13;;;13.37;71.31
79799;BME280;69283;48.024;11.090;2023-10-09T01:06:36;96009.09;;;13.57;71.11
79799;BME280;69283;48.024;11.090;2023-10-09T01:09:08;95998.88;;;13.42;71.60
79799;BME280;69283;48.024;11.090;2023-10-09T01:11:35;95997.28;;;13.40;71.62
79799;BME280;69283;48.024;11.090;2023-10-09T01:14:12;95993.44;;;13.42;71.62
79799;BME280;69283;48.024;11.090;2023-10-09T01:16:38;95986.97;;;13.46;71.19
79799;BME280;69283;48.024;11.090;2023-10-09T01:19:06;95994.69;;;13.44;70.77
79799;BME280;69283;48.024;11.090;2023-10-09T01:21:39;95986.59;;;13.35;71.53
79799;BME280;69283;48.024;11.090;2023-10-09T01:24:05;95984.69;;;13.36;71.50
79799;BME280;69283;48.024;11.090;2023-10-09T01:26:40;95980.63;;;13.42;71.46
79799;BME280;69283;48.024;11.090;2023-10-09T01:29:19;95978.25;;;13.53;71.13
79799;BME280;69283;48.024;11.090;2023-10-09T01:31:55;95971.44;;;13.47;71.66
79799;BME280;69283;48.024;11.090;2023-10-09T01:34:22;95976.97;;;13.38;71.39
79799;BME280;69283;48.024;11.090;2023-10-09T01:36:51;95977.78;;;13.51;71.40
79799;BME280;69283;48.024;11.090;2023-10-09T01:39:20;95976.19;;;13.50;71.39
79799;BME280;69283;48.024;11.090;2023-10-09T01:41:54;95971.66;;;13.54;71.65
79799;BME280;69283;48.024;11.090;2023-10-09T01:44:27;95967.91;;;13.58;71.58
79799;BME280;69283;48.024;11.090;2023-10-09T01:46:55;95973.13;;;13.76;71.19
79799;BME280;69283;48.024;11.090;2023-10-09T01:49:23;95975.75;;;13.72;71.11
79799;BME280;69283;48.024;11.090;2023-10-09T01:51:55;95968.94;;;13.66;71.99
79799;BME280;69283;48.024;11.090;2023-10-09T01:54:24;95968.59;;;13.80;71.91
79799;BME280;69283;48.024;11.090;2023-10-09T01:57:02;95966.44;;;13.85;71.96
79799;BME280;69283;48.024;11.090;2023-10-09T01:59:38;95964.63;;;13.89;71.01
79799;BME280;69283;48.024;11.090;2023-10-09T02:02:06;95969.63;;;13.87;70.44
79799;BME280;69283;48.024;11.090;2023-10-09T02:04:58;95965.53;;;13.81;70.22
79799;BME280;69283;48.024;11.090;2023-10-09T02:07:35;95963.84;;;13.89;69.89
79799;BME280;69283;48.024;11.090;2023-10-09T02:10:10;95964.19;;;13.87;70.05
79799;BME280;69283;48.024;11.090;2023-10-09T02:13:01;95959.16;;;13.77;70.31
79799;BME280;69283;48.024;11.090;2023-10-09T02:15:33;95950.91;;;13.74;70.72
79799;BME280;69283;48.024;11.090;2023-10-09T02:18:12;95951.00;;;13.89;69.74
79799;BME280;69283;48.024;11.090;2023-10-09T02:20:53;95941.44;;;13.95;69.44
79799;BME280;69283;48.024;11.090;2023-10-09T02:23:32;95938.97;;;14.03;68.04
79799;BME280;69283;48.024;11.090;2023-10-09T02:26:10;95942.69;;;14.10;67.68
79799;BME280;69283;48.024;11.090;2023-10-09T02:28:44;95941.28;;;14.16;66.67
79799;BME280;69283;48.024;11.090;2023-10-09T02:31:11;95938.66;;;14.20;66.81
79799;BME280;69283;48.024;11.090;2023-10-09T02:33:37;95931.88;;;14.26;66.13
79799;BME280;69283;48.024;11.090;2023-10-09T02:36:08;95936.16;;;14.27;66.21
79799;BME280;69283;48.024;11.090;2023-10-09T02:38:35;95937.31;;;14.26;66.07
79799;BME280;69283;48.024;11.090;2023-10-09T02:41:07;95930.28;;;14.25;65.59
79799;BME280;69283;48.024;11.090;2023-10-09T02:43:53;95929.47;;;14.24;65.96
79799;BME280;69283;48.024;11.090;2023-10-09T02:46:21;95923.91;;;14.21;65.39
79799;BME280;69283;48.024;11.090;2023-10-09T02:48:54;95923.81;;;14.17;65.77
79799;BME280;69283;48.024;11.090;2023-10-09T02:51:22;95930.31;;;14.00;66.99
79799;BME280;69283;48.024;11.090;2023-10-09T02:53:54;95920.34;;;13.92;67.47
79799;BME280;69283;48.024;11.090;2023-10-09T02:56:22;95922.28;;;13.92;67.33
79799;BME280;69283;48.024;11.090;2023-10-09T02:58:56;95914.44;;;13.90;67.37
79799;BME280;69283;48.024;11.090;2023-10-09T03:01:31;95910.13;;;14.02;66.43
79799;BME280;69283;48.024;11.090;2023-10-09T03:03:56;95910.38;;;13.84;67.65
79799;BME280;69283;48.024;11.090;2023-10-09T03:06:24;95911.53;;;13.83;67.81
79799;BME280;69283;48.024;11.090;2023-10-09T03:08:53;95909.47;;;13.80;67.91
79799;BME280;69283;48.024;11.090;2023-10-09T03:11:20;95909.47;;;13.80;67.97
79799;BME280;69283;48.024;11.090;2023-10-09T03:13:45;95908.66;;;13.80;68.21
79799;BME280;69283;48.024;11.090;2023-10-09T03:16:11;95908.09;;;13.86;67.34
79799;BME280;69283;48.024;11.090;2023-10-09T03:18:51;95910.38;;;13.84;67.22
79799;BME280;69283;48.024;11.090;2023-10-09T03:21:18;95903.69;;;13.82;67.93
79799;BME280;69283;48.024;11.090;2023-10-09T03:23:46;95902.41;;;13.79;68.09
79799;BME280;69283;48.024;11.090;2023-10-09T03:26:18;95899.50;;;13.60;69.12
79799;BME280;69283;48.024;11.090;2023-10-09T03:28:45;95903.13;;;13.52;69.19
79799;BME280;69283;48.024;11.090;2023-10-09T03:31:11;95900.66;;;13.47;69.47
79799;BME280;69283;48.024;11.090;2023-10-09T03:33:37;95893.38;;;13.38;69.50
79799;BME280;69283;48.024;11.090;2023-10-09T03:36:03;95891.34;;;13.48;69.50
79799;BME280;69283;48.024;11.090;2023-10-09T03:38:33;95893.16;;;13.56;68.70
79799;BME280;69283;48.024;11.090;2023-10-09T03:41:03;95886.81;;;13.52;69.16
79799;BME280;69283;48.024;11.090;2023-10-09T03:43:35;95888.28;;;13.49;69.01
79799;BME280;69283;48.024;11.090;2023-10-09T03:46:08;95882.03;;;13.49;68.79
79799;BME280;69283;48.024;11.090;2023-10-09T03:48:49;95885.66;;;13.40;69.33
79799;BME280;69283;48.024;11.090;2023-10-09T03:51:15;95888.06;;;13.42;69.09
79799;BME280;69283;48.024;11.090;2023-10-09T03:53:50;95892.25;;;13.27;69.71
79799;BME280;69283;48.024;11.090;2023-10-09T03:56:16;95886.81;;;13.27;69.96
79799;BME280;69283;48.024;11.090;2023-10-09T03:58:44;95886.13;;;13.18;70.41
79799;BME280;69283;48.024;11.090;2023-10-09T04:01:11;95882.97;;;13.28;69.80
79799;BME280;69283;48.024;11.090;2023-10-09T04:03:44;95880.00;;;13.33;69.30
79799;BME280;69283;48.024;11.090;2023-10-09T04:06:09;95874.34;;;13.26;69.71
79799;BME280;69283;48.024;11.090;2023-10-09T04:08:36;95880.13;;;13.25;69.57
79799;BME280;69283;48.024;11.090;2023-10-09T04:11:05;95874.56;;;13.33;69.29
79799;BME280;69283;48.024;11.090;2023-10-09T04:13:45;95869.81;;;13.43;68.92
79799;BME280;69283;48.024;11.090;2023-10-09T04:16:15;95876.50;;;13.45;68.23
79799;BME280;69283;48.024;11.090;2023-10-09T04:18:55;95880.56;;;13.39;69.07
79799;BME280;69283;48.024;11.090;2023-10-09T04:21:24;95873.66;;;13.29;68.93
79799;BME280;69283;48.024;11.090;2023-10-09T04:24:08;95879.09;;;13.29;69.64
79799;BME280;69283;48.024;11.090;2023-10-09T04:26:37;95875.94;;;13.27;69.04
79799;BME280;69283;48.024;11.090;2023-10-09T04:29:05;95868.91;;;13.26;69.30
79799;BME280;69283;48.024;11.090;2023-10-09T04:31:30;95870.72;;;13.22;69.69
79799;BME280;69283;48.024;11.090;2023-10-09T04:34:03;95875.22;;;13.18;69.55
79799;BME280;69283;48.024;11.090;2023-10-09T04:36:47;95868.28;;;13.08;70.13
79799;BME280;69283;48.024;11.090;2023-10-09T04:39:14;95873.84;;;13.12;70.11
79799;BME280;69283;48.024;11.090;2023-10-09T04:41:58;95880.66;;;13.18;69.58
79799;BME280;69283;48.024;11.090;2023-10-09T04:44:42;95872.03;;;13.16;70.06
79799;BME280;69283;48.024;11.090;2023-10-09T04:47:33;95878.50;;;13.12;70.07
79799;BME280;69283;48.024;11.090;2023-10-09T04:50:08;95876.47;;;13.21;69.93
79799;BME280;69283;48.024;11.090;2023-10-09T04:53:00;95879.09;;;13.29;69.46
79799;BME280;69283;48.024;11.090;2023-10-09T04:55:47;95875.13;;;13.27;69.83
79799;BME280;69283;48.024;11.090;2023-10-09T04:58:20;95870.25;;;13.32;69.48
79799;BME280;69283;48.024;11.090;2023-10-09T05:00:49;95874.09;;;13.31;69.20
79799;BME280;69283;48.024;11.090;2023-10-09T05:03:35;95862.06;;;13.20;69.80
79799;BME280;69283;48.024;11.090;2023-10-09T05:06:09;95858.69;;;13.35;69.65
79799;BME280;69283;48.024;11.090;2023-10-09T05:08:47;95862.41;;;13.19;70.24
79799;BME280;69283;48.024;11.090;2023-10-09T05:11:14;95858.56;;;13.20;70.30
79799;BME280;69283;48.024;11.090;2023-10-09T05:14:00;95863.56;;;13.30;70.10
79799;BME280;69283;48.024;11.090;2023-10-09T05:16:38;95858.91;;;13.30;69.70
79799;BME280;69283;48.024;11.090;2023-10-09T05:19:22;95867.44;;;13.29;69.51
79799;BME280;69283;48.024;11.090;2023-10-09T05:22:06;95860.84;;;13.30;69.48
79799;BME280;69283;48.024;11.090;2023-10-09T05:24:43;95858.56;;;13.32;68.64
79799;BME280;69283;48.024;11.090;2023-10-09T05:27:12;95866.16;;;13.38;68.00
79799;BME280;69283;48.024;11.090;2023-10-09T05:29:44;95876.16;;;13.34;68.65
79799;BME280;69283;48.024;11.090;2023-10-09T05:32:25;95877.63;;;13.44;67.86
79799;BME280;69283;48.024;11.090;2023-10-09T05:34:55;95882.94;;;13.53;67.28
79799;BME280;69283;48.024;11.090;2023-10-09T05:37:27;95878.28;;;13.53;67.63
79799;BME280;69283;48.024;11.090;2023-10-09T05:39:59;95881.00;;;13.53;67.98
79799;BME280;69283;48.024;11.090;2023-10-09T05:42:35;95881.22;;;13.60;66.67
79799;BME280;69283;48.024;11.090;2023-10-09T05:45:14;95887.00;;;13.59;67.88
79799;BME280;69283;48.024;11.090;2023-10-09T05:47:45;95888.59;;;13.60;67.53
79799;BME280;69283;48.024;11.090;2023-10-09T05:50:42;95898.25;;;13.69;67.38
79799;BME280;69283;48.024;11.090;2023-10-09T05:53:26;95896.44;;;13.74;67.68
79799;BME280;69283;48.024;11.090;2023-10-09T05:56:12;95897.78;;;13.80;68.13
79799;BME280;69283;48.024;11.090;2023-10-09T05:58:57;95902.22;;;13.84;68.60
79799;BME280;69283;48.024;11.090;2023-10-09T06:01:41;95894.25;;;13.91;69.03
79799;BME280;69283;48.024;11.090;2023-10-09T06:04:15;95898.75;;;13.99;69.36
79799;BME280;69283;48.024;11.090;2023-10-09T06:06:42;95905.22;;;14.07;71.08
79799;BME280;69283;48.024;11.090;2023-10-09T06:09:13;95900.41;;;14.16;71.47
79799;BME280;69283;48.024;11.090;2023-10-09T06:11:39;95903.03;;;14.25;70.67
79799;BME280;69283;48.024;11.090;2023-10-09T06:14:06;95899.78;;;14.35;70.32
79799;BME280;69283;48.024;11.090;2023-10-09T06:16:39;95906.72;;;14.45;70.27
79799;BME280;69283;48.024;11.090;2023-10-09T06:19:08;95907.72;;;14.52;69.14
79799;BME280;69283;48.024;11.090;2023-10-09T06:21:37;95908.81;;;14.64;67.23
79799;BME280;69283;48.024;11.090;2023-10-09T06:24:12;95912.00;;;14.81;63.27
79799;BME280;69283;48.024;11.090;2023-10-09T06:26:45;95911.00;;;15.02;64.14
79799;BME280;69283;48.024;11.090;2023-10-09T06:29:23;95911.34;;;15.16;64.17
79799;BME280;69283;48.024;11.090;2023-10-09T06:32:16;95912.22;;;15.36;65.26
79799;BME280;69283;48.024;11.090;2023-10-09T06:37:20;95912.31;;;15.71;62.62
79799;BME280;69283;48.024;11.090;2023-10-09T06:39:52;95912.28;;;15.87;62.33
79799;BME280;69283;48.024;11.090;2023-10-09T06:42:27;95903.69;;;16.04;60.13
79799;BME280;69283;48.024;11.090;2023-10-09T06:45:05;95909.19;;;16.23;60.14
79799;BME280;69283;48.024;11.090;2023-10-09T06:47:33;95907.53;;;16.38;57.76
79799;BME280;69283;48.024;11.090;2023-10-09T06:50:15;95905.63;;;16.61;56.57
79799;BME280;69283;48.024;11.090;2023-10-09T06:52:47;95909.19;;;16.81;55.68
79799;BME280;69283;48.024;11.090;2023-10-09T06:55:22;95919.75;;;17.02;55.84
79799;BME280;69283;48.024;11.090;2023-10-09T06:57:58;95911.97;;;17.27;55.41
79799;BME280;69283;48.024;11.090;2023-10-09T07:00:29;95924.78;;;17.42;54.83
79799;BME280;69283;48.024;11.090;2023-10-09T07:03:19;95920.72;;;17.59;54.43
79799;BME280;69283;48.024;11.090;2023-10-09T07:06:05;95918.19;;;17.70;53.48
79799;BME280;69283;48.024;11.090;2023-10-09T07:08:38;95925.91;;;17.87;53.95
79799;BME280;69283;48.024;11.090;2023-10-09T07:11:04;95918.72;;;18.05;52.85
79799;BME280;69283;48.024;11.090;2023-10-09T07:14:09;95927.25;;;18.27;52.14
79799;BME280;69283;48.024;11.090;2023-10-09T07:16:54;95926.22;;;18.38;52.09
79799;BME280;69283;48.024;11.090;2023-10-09T07:19:23;95921.28;;;18.51;50.22
79799;BME280;69283;48.024;11.090;2023-10-09T07:22:07;95928.78;;;18.84;49.42
79799;BME280;69283;48.024;11.090;2023-10-09T07:24:48;95932.75;;;18.90;49.30
79799;BME280;69283;48.024;11.090;2023-10-09T07:27:23;95932.41;;;18.95;49.56
79799;BME280;69283;48.024;11.090;2023-10-09T07:30:08;95931.41;;;19.10;49.71
79799;BME280;69283;48.024;11.090;2023-10-09T07:32:59;95930.00;;;19.27;49.96
79799;BME280;69283;48.024;11.090;2023-10-09T07:35:50;95938.06;;;19.50;49.65
79799;BME280;69283;48.024;11.090;2023-10-09T07:38:23;95930.03;;;19.71;48.92
79799;BME280;69283;48.024;11.090;2023-10-09T07:40:54;95932.78;;;19.71;48.61
79799;BME280;69283;48.024;11.090;2023-10-09T07:43:34;95935.78;;;19.56;48.03
79799;BME280;69283;48.024;11.090;2023-10-09T07:46:15;95935.56;;;19.75;47.75
79799;BME280;69283;48.024;11.090;2023-10-09T07:48:59;95922.38;;;20.02;48.03
79799;BME280;69283;48.024;11.090;2023-10-09T07:51:26;95932.41;;;20.28;47.67
79799;BME280;69283;48.024;11.090;2023-10-09T07:53:58;95937.28;;;20.56;47.43
79799;BME280;69283;48.024;11.090;2023-10-09T07:56:34;95924.81;;;20.87;46.71
79799;BME280;69283;48.024;11.090;2023-10-09T07:59:06;95924.50;;;21.03;46.22
79799;BME280;69283;48.024;11.090;2023-10-09T08:01:40;95923.38;;;21.25;46.23
79799;BME280;69283;48.024;11.090;2023-10-09T08:04:26;95921.44;;;21.47;43.92
79799;BME280;69283;48.024;11.090;2023-10-09T08:07:11;95928.13;;;21.28;44.52
79799;BME280;69283;48.024;11.090;2023-10-09T08:09:54;95930.41;;;21.12;45.67
79799;BME280;69283;48.024;11.090;2023-10-09T08:12:38;95927.97;;;20.92;45.53
79799;BME280;69283;48.024;11.090;2023-10-09T08:15:10;95934.22;;;20.75;46.34
79799;BME280;69283;48.024;11.090;2023-10-09T08:17:44;95929.91;;;20.78;46.58
79799;BME280;69283;48.024;11.090;2023-10-09T08:20:16;95938.50;;;20.65;47.85
79799;BME280;69283;48.024;11.090;2023-10-09T08:22:42;95939.25;;;20.55;48.03
79799;BME280;69283;48.024;11.090;2023-10-09T08:25:17;95955.34;;;20.50;47.29
79799;BME280;69283;48.024;11.090;2023-10-09T08:27:57;95951.66;;;20.31;48.53
79799;BME280;69283;48.024;11.090;2023-10-09T08:30:24;95957.13;;;20.24;47.86
79799;BME280;69283;48.024;11.090;2023-10-09T08:32:51;95961.34;;;20.08;48.64
79799;BME280;69283;48.024;11.090;2023-10-09T08:35:34;95959.69;;;19.96;48.72
79799;BME280;69283;48.024;11.090;2023-10-09T08:38:01;95963.16;;;19.86;49.56
79799;BME280;69283;48.024;11.090;2023-10-09T08:40:34;95969.38;;;19.79;50.10
79799;BME280;69283;48.024;11.090;2023-10-09T08:43:13;95964.94;;;19.64;50.35
79799;BME280;69283;48.024;11.090;2023-10-09T08:45:41;95974.34;;;19.63;50.42
79799;BME280;69283;48.024;11.090;2023-10-09T08:48:11;95968.38;;;19.54;50.38
79799;BME280;69283;48.024;11.090;2023-10-09T08:50:44;95965.94;;;19.49;50.77
79799;BME280;69283;48.024;11.090;2023-10-09T08:53:10;95968.25;;;19.43;50.60
79799;BME280;69283;48.024;11.090;2023-10-09T08:55:37;95966.28;;;19.43;50.03
79799;BME280;69283;48.024;11.090;2023-10-09T08:58:04;95966.28;;;19.43;50.07
79799;BME280;69283;48.024;11.090;2023-10-09T09:00:37;95968.56;;;19.38;50.40
79799;BME280;69283;48.024;11.090;2023-10-09T09:03:07;95970.94;;;19.39;50.61
79799;BME280;69283;48.024;11.090;2023-10-09T09:05:33;95977.97;;;19.37;51.11
79799;BME280;69283;48.024;11.090;2023-10-09T09:08:01;95986.56;;;19.32;51.17
79799;BME280;69283;48.024;11.090;2023-10-09T09:10:30;95977.13;;;19.29;51.32
79799;BME280;69283;48.024;11.090;2023-10-09T09:13:03;95977.53;;;19.31;50.55
79799;BME280;69283;48.024;11.090;2023-10-09T09:15:30;95977.91;;;19.30;50.80
79799;BME280;69283;48.024;11.090;2023-10-09T09:18:06;95970.88;;;19.32;50.23
79799;BME280;69283;48.024;11.090;2023-10-09T09:20:34;95975.56;;;19.28;51.83
79799;BME280;69283;48.024;11.090;2023-10-09T09:23:02;95988.13;;;19.29;51.21
79799;BME280;69283;48.024;11.090;2023-10-09T09:25:44;95981.53;;;19.37;48.51
79799;BME280;69283;48.024;11.090;2023-10-09T09:28:11;95983.09;;;19.38;48.85
79799;BME280;69283;48.024;11.090;2023-10-09T09:30:38;95991.34;;;19.38;48.94
79799;BME280;69283;48.024;11.090;2023-10-09T09:33:24;95988.69;;;19.45;48.76
79799;BME280;69283;48.024;11.090;2023-10-09T09:36:05;95979.31;;;19.50;47.84
79799;BME280;69283;48.024;11.090;2023-10-09T09:38:32;95985.19;;;19.49;47.41
79799;BME280;69283;48.024;11.090;2023-10-09T09:41:08;95981.28;;;19.53;47.10
79799;BME280;69283;48.024;11.090;2023-10-09T09:43:34;95977.41;;;19.54;47.23
79799;BME280;69283;48.024;11.090;2023-10-09T09:46:01;95975.00;;;19.53;47.68
79799;BME280;69283;48.024;11.090;2023-10-09T09:48:37;95973.88;;;19.57;47.56
79799;BME280;69283;48.024;11.090;2023-10-09T09:51:04;95981.44;;;19.64;47.31
79799;BME280;69283;48.024;11.090;2023-10-09T09:53:31;95979.50;;;19.68;47.60
79799;BME280;69283;48.024;11.090;2023-10-09T09:56:00;95985.34;;;19.63;48.16
79799;BME280;69283;48.024;11.090;2023-10-09T09:58:27;95983.00;;;19.65;47.69
79799;BME280;69283;48.024;11.090;2023-10-09T10:01:03;95986.56;;;19.69;47.76
79799;BME280;69283;48.024;11.090;2023-10-09T10:03:47;95984.22;;;19.71;48.20
79799;BME280;69283;48.024;11.090;2023-10-09T10:06:17;95985.44;;;19.73;47.73
79799;BME280;69283;48.024;11.090;2023-10-09T10:08:44;95989.47;;;19.83;47.72
79799;BME280;69283;48.024;11.090;2023-10-09T10:11:43;95988.66;;;19.83;48.31
79799;BME280;69283;48.024;11.090;2023-10-09T10:14:14;95986.31;;;19.85;47.63
79799;BME280;69283;48.024;11.090;2023-10-09T10:17:06;95991.78;;;19.81;48.08
79799;BME280;69283;48.024;11.090;2023-10-09T10:20:05;95990.97;;;19.77;49.03
79799;BME280;69283;48.024;11.090;2023-10-09T10:22:39;95995.28;;;19.78;48.25
79799;BME280;69283;48.024;11.090;2023-10-09T10:25:05;95996.88;;;19.79;48.15
79799;BME280;69283;48.024;11.090;2023-10-09T10:27:35;95990.97;;;19.81;48.27
79799;BME280;69283;48.024;11.090;2023-10-09T10:32:56;95997.28;;;19.81;48.76
79799;BME280;69283;48.024;11.090;2023-10-09T10:35:40;95989.50;;;19.90;48.25
79799;BME280;69283;48.024;11.090;2023-10-09T10:38:30;95996.22;;;19.96;47.00
79799;BME280;69283;48.024;11.090;2023-10-09T10:41:09;95992.69;;;19.96;47.18
79799;BME280;69283;48.024;11.090;2023-10-09T10:43:37;95995.47;;;19.99;46.54
79799;BME280;69283;48.024;11.090;2023-10-09T10:46:19;95991.97;;;20.02;47.70
79799;BME280;69283;48.024;11.090;2023-10-09T10:49:00;95998.22;;;19.99;48.08
79799;BME280;69283;48.024;11.090;2023-10-09T10:51:36;95995.88;;;20.01;48.23
79799;BME280;69283;48.024;11.090;2023-10-09T10:54:08;95992.00;;;20.06;47.82
79799;BME280;69283;48.024;11.090;2023-10-09T10:57:15;95988.13;;;20.18;47.78
79799;BME280;69283;48.024;11.090;2023-10-09T10:59:53;95983.13;;;20.34;46.77
79799;BME280;69283;48.024;11.090;2023-10-09T11:02:29;95988.63;;;20.34;46.51
79799;BME280;69283;48.024;11.090;2023-10-09T11:04:56;95978.16;;;20.47;46.12
79799;BME280;69283;48.024;11.090;2023-10-09T11:07:23;95970.69;;;20.54;45.45
79799;BME280;69283;48.024;11.090;2023-10-09T11:09:53;95975.09;;;20.62;45.41
79799;BME280;69283;48.024;11.090;2023-10-09T11:15:15;95974.72;;;20.71;45.19
79799;BME280;69283;48.024;11.090;2023-10-09T11:18:01;95972.00;;;20.82;45.00
79799;BME280;69283;48.024;11.090;2023-10-09T11:20:36;95969.69;;;20.94;44.36
79799;BME280;69283;48.024;11.090;2023-10-09T11:23:03;95963.41;;;20.94;44.13
79799;BME280;69283;48.024;11.090;2023-10-09T11:25:36;95967.34;;;20.93;44.08
79799;BME280;69283;48.024;11.090;2023-10-09T11:28:18;95964.63;;;21.04;43.12
79799;BME280;69283;48.024;11.090;2023-10-09T11:31:05;95968.97;;;21.12;41.87
79799;BME280;69283;48.024;11.090;2023-10-09T11:33:45;95973.72;;;21.18;41.33
79799;BME280;69283;48.024;11.090;2023-10-09T11:36:11;95957.94;;;21.08;42.54
79799;BME280;69283;48.024;11.090;2023-10-09T11:38:37;95955.59;;;21.03;43.86
79799;BME280;69283;48.024;11.090;2023-10-09T11:41:16;95942.16;;;21.02;42.18
79799;BME280;69283;48.024;11.090;2023-10-09T11:43:52;95945.75;;;21.16;40.17
79799;BME280;69283;48.024;11.090;2023-10-09T11:46:23;95945.03;;;21.37;39.74
79799;BME280;69283;48.024;11.090;2023-10-09T11:49:13;95958.03;;;21.37;39.55
79799;BME280;69283;48.024;11.090;2023-10-09T11:51:44;95949.38;;;21.28;40.34
79799;BME280;69283;48.024;11.090;2023-10-09T11:54:34;95940.72;;;21.25;40.83
79799;BME280;69283;48.024;11.090;2023-10-09T11:57:00;95945.03;;;21.27;39.27
79799;BME280;69283;48.024;11.090;2023-10-09T11:59:28;95944.66;;;21.32;37.84
79799;BME280;69283;48.024;11.090;2023-10-09T12:02:00;95946.22;;;21.33;38.36
79799;BME280;69283;48.024;11.090;2023-10-09T12:04:26;95942.69;;;21.29;39.64
79799;BME280;69283;48.024;11.090;2023-10-09T12:06:55;95941.50;;;21.30;37.82
79799;BME280;69283;48.024;11.090;2023-10-09T12:09:32;95942.25;;;21.23;37.99
79799;BME280;69283;48.024;11.090;2023-10-09T12:12:00;95944.19;;;21.19;38.12
79799;BME280;69283;48.024;11.090;2023-10-09T12:14:25;95943.78;;;21.10;37.91
79799;BME280;69283;48.024;11.090;2023-10-09T12:16:51;95940.25;;;21.09;37.79
79799;BME280;69283;48.024;11.090;2023-10-09T12:19:17;95932.75;;;21.03;38.41
79799;BME280;69283;48.024;11.090;2023-10-09T12:21:43;95939.41;;;20.94;39.21
79799;BME280;69283;48.024;11.090;2023-10-09T12:24:09;95931.13;;;20.84;39.54
79799;BME280;69283;48.024;11.090;2023-10-09T12:26:37;95936.25;;;20.92;39.11
79799;BME280;69283;48.024;11.090;2023-10-09T12:29:05;95935.06;;;20.90;39.25
79799;BME280;69283;48.024;11.090;2023-10-09T12:31:36;95932.66;;;20.81;39.84
79799;BME280;69283;48.024;11.090;2023-10-09T12:34:01;95931.06;;;20.77;40.09
79799;BME280;69283;48.024;11.090;2023-10-09T12:36:27;95931.50;;;20.82;39.52
79799;BME280;69283;48.024;11.090;2023-10-09T12:38:53;95932.69;;;20.85;39.15
79799;BME280;69283;48.024;11.090;2023-10-09T12:41:19;95946.81;;;20.80;39.83
79799;BME280;69283;48.024;11.090;2023-10-09T12:43:52;95943.25;;;20.72;40.76
79799;BME280;69283;48.024;11.090;2023-10-09T12:46:18;95947.56;;;20.70;40.80
79799;BME280;69283;48.024;11.090;2023-10-09T12:48:48;95948.34;;;20.63;41.78
79799;BME280;69283;48.024;11.090;2023-10-09T12:51:14;95947.56;;;20.62;41.83
79799;BME280;69283;48.024;11.090;2023-10-09T12:53:43;95950.72;;;20.68;41.51
79799;BME280;69283;48.024;11.090;2023-10-09T12:56:09;95951.91;;;20.67;41.71
79799;BME280;69283;48.024;11.090;2023-10-09T12:58:37;95953.81;;;20.59;41.99
79799;BME280;69283;48.024;11.090;2023-10-09T13:01:03;95960.09;;;20.56;43.00
79799;BME280;69283;48.024;11.090;2023-10-09T13:03:34;95957.31;;;20.53;43.20
79799;BME280;69283;48.024;11.090;2023-10-09T13:06:03;95960.84;;;20.50;43.28
79799;BME280;69283;48.024;11.090;2023-10-09T13:08:32;95969.91;;;20.50;43.91
79799;BME280;69283;48.024;11.090;2023-10-09T13:11:06;95982.09;;;20.49;43.21
79799;BME280;69283;48.024;11.090;2023-10-09T13:13:45;95964.38;;;20.43;43.61
79799;BME280;69283;48.024;11.090;2023-10-09T13:16:20;95958.78;;;20.40;43.84
79799;BME280;69283;48.024;11.090;2023-10-09T13:18:49;95962.72;;;20.39;43.93
79799;BME280;69283;48.024;11.090;2023-10-09T13:21:21;95959.94;;;20.35;44.21
79799;BME280;69283;48.024;11.090;2023-10-09T13:23:48;95967.03;;;20.40;44.08
79799;BME280;69283;48.024;11.090;2023-10-09T13:26:16;95960.72;;;20.32;44.56
79799;BME280;69283;48.024;11.090;2023-10-09T13:28:51;95966.59;;;20.30;44.53
79799;BME280;69283;48.024;11.090;2023-10-09T13:31:19;95957.97;;;20.32;44.21